Time;durP1;ratioP1;P1;durP2;ratioP2;P2;SDS_P1;SDS_P2;PMS_P1;PMS_P2;Temp;Humidity;BMP_temperature;BMP_pressure;BME280_temperature;BME280_humidity;BME280_pressure;Samples;Min_cycle;Max_cycle;Signal;HPM_P1;HPM_P2
2021/09/14 00:05:44;;;;;;;;;;;;;;;;;;;;;
2021/09/14 00:11:40;;;;;;;;;0.25;0.25;;;;;21.63;55.92;100792.22;4992590;28;45638;-82
2021/09/14 00:17:45;;;;;;;;;0.00;0.00;;;;;21.05;56.59;100732.50;5005495;28;45350;-82
2021/09/14 00:20:29;;;;;;;;;;;;;;;;;;;;;
2021/09/14 00:26:58;;;;;;;;;0.00;0.00;;;;;20.53;56.37;100662.84;4994950;28;45243;-85
2021/09/14 00:29:36;;;;;;;;;1.00;1.00;;;;;20.77;56.29;100694.63;5001305;28;45517;-85
2021/09/14 00:33:00;;;;;;;;;1.00;0.25;;;;;21.23;56.50;100771.53;5019518;28;45489;-81
2021/09/14 00:36:18;;;;;;;;;;;;;;;;;;;;;
2021/09/14 00:39:55;;;;;;;;;;;;;;;;;;;;;
2021/09/14 00:42:30;;;;;;;;;0.00;0.00;;;;;20.41;56.91;100647.38;4973122;27;45548;-80
2021/09/14 00:44:55;;;;;;;;;0.00;0.00;;;;;20.84;56.25;100722.59;5086632;27;45315;-84
2021/09/14 00:47:21;;;;;;;;;0.00;0.00;;;;;20.71;56.45;100698.38;5085151;27;45523;-84
2021/09/14 00:50:07;;;;;;;;;1.25;0.25;;;;;20.41;56.71;100656.19;5105777;27;45329;-81
2021/09/14 00:52:40;;;;;;;;;1.00;0.00;;;;;20.20;56.99;100619.00;5084684;27;45457;-84
2021/09/14 00:55:19;;;;;;;;;;;;;;;;;;;;;
2021/09/14 00:58:26;;;;;;;;;2.75;0.00;;;;;20.06;56.95;100608.03;5102049;27;74867;-82
2021/09/14 01:03:50;;;;;;;;;0.00;0.00;;;;;20.33;57.31;100688.16;5087298;27;45401;-84
2021/09/14 01:06:33;;;;;;;;;0.00;0.00;;;;;20.68;57.05;100727.56;5085446;27;45311;-82
2021/09/14 01:09:09;;;;;;;;;0.25;0.25;;;;;20.15;57.34;100649.13;5085438;27;47107;-82
2021/09/14 01:11:38;;;;;;;;;0.00;0.00;;;;;20.38;57.58;100695.94;5083373;27;45559;-84
2021/09/14 01:14:20;;;;;;;;;0.00;0.00;;;;;20.27;57.58;100669.84;5084594;27;45703;-82
2021/09/14 01:17:39;;;;;;;;;0.00;0.00;;;;;21.07;57.44;100810.91;5083609;27;45339;-81
2021/09/14 01:20:54;;;;;;;;;0.00;0.00;;;;;20.08;57.58;100659.91;5098613;27;45268;-86
2021/09/14 01:23:29;;;;;;;;;0.00;0.00;;;;;21.09;57.47;100830.25;5071823;27;45395;-84
2021/09/14 01:26:12;;;;;;;;;0.00;0.00;;;;;20.26;58.01;100702.50;5102523;27;45288;-85
2021/09/14 01:28:41;;;;;;;;;0.00;0.00;;;;;19.74;58.13;100611.63;5083935;27;45752;-85
2021/09/14 01:31:21;;;;;;;;;0.00;0.00;;;;;21.06;57.89;100827.72;5085407;27;46431;-85
2021/09/14 01:33:53;;;;;;;;;0.00;0.00;;;;;20.33;57.48;100721.66;5084352;27;45547;-81
2021/09/14 01:36:22;;;;;;;;;0.00;0.00;;;;;20.55;57.80;100750.03;5085707;27;45297;-82
2021/09/14 01:38:50;;;;;;;;;0.00;0.00;;;;;20.29;57.93;100712.09;5082239;27;45353;-83
2021/09/14 01:41:21;;;;;;;;;0.00;0.00;;;;;20.30;57.92;100725.25;5083928;27;46571;-85
2021/09/14 01:43:49;;;;;;;;;0.00;0.00;;;;;20.53;57.50;100762.44;5085309;27;45391;-83
2021/09/14 01:46:14;;;;;;;;;0.00;0.00;;;;;20.42;58.22;100753.06;5085444;27;45324;-82
2021/09/14 01:48:54;;;;;;;;;0.00;0.00;;;;;20.37;57.77;100726.78;5085488;27;45287;-85
2021/09/14 01:51:20;;;;;;;;;0.00;0.00;;;;;20.41;57.89;100738.13;5102141;27;45944;-81
2021/09/14 01:53:59;;;;;;;;;0.00;0.00;;;;;20.38;57.99;100730.31;5085267;27;46478;-85
2021/09/14 01:56:27;;;;;;;;;0.00;0.00;;;;;21.21;57.83;100889.84;5102962;27;45283;-81
2021/09/14 01:58:53;;;;;;;;;0.00;0.00;;;;;20.46;57.98;100752.06;5118346;27;45486;-84
2021/09/14 02:04:33;;;;;;;;;0.00;0.00;;;;;20.95;57.86;100814.00;5095007;27;45420;-85
2021/09/14 02:07:16;;;;;;;;;0.00;0.00;;;;;20.15;57.71;100675.56;5101991;27;45448;-84
2021/09/14 02:43:40;;;;;;;;;0.00;0.00;;;;;21.24;58.75;100817.41;5087037;28;45508;-83
2021/09/14 03:00:20;;;;;;;;;0.00;0.00;;;;;20.41;59.95;100679.09;5084900;28;45505;-80
2021/09/14 03:03:03;;;;;;;;;2.25;0.50;;;;;20.44;59.78;100677.25;5097312;27;45474;-85
2021/09/14 03:05:40;;;;;;;;;2.75;0.00;;;;;20.71;59.89;100716.88;5105449;27;45354;-83
2021/09/14 03:08:08;;;;;;;;;0.00;0.00;;;;;20.40;60.61;100669.47;5122174;27;46501;-81
2021/09/14 03:10:41;;;;;;;;;0.00;0.00;;;;;21.12;60.72;100773.72;5086253;27;45990;-83
2021/09/14 03:13:19;;;;;;;;;0.00;0.00;;;;;20.08;60.32;100608.81;5088523;27;45580;-86
2021/09/14 03:15:50;;;;;;;;;0.00;0.00;;;;;20.56;61.57;100686.53;5086715;27;45581;-82
2021/09/14 03:18:19;;;;;;;;;0.00;0.00;;;;;20.90;61.82;100758.59;5086427;27;45321;-81
2021/09/14 03:20:45;;;;;;;;;0.00;0.00;;;;;20.17;62.02;100640.25;5086440;27;45383;-85
2021/09/14 03:23:25;;;;;;;;;0.75;0.25;;;;;19.43;61.96;100530.78;5089068;27;45425;-82
2021/09/14 03:25:51;;;;;;;;;1.00;1.00;;;;;20.07;62.07;100647.63;5103951;27;45871;-87
2021/09/14 03:28:30;;;;;;;;;0.00;0.00;;;;;20.83;63.11;100775.56;5087870;27;45518;-82
2021/09/14 03:31:43;;;;;;;;;0.00;0.00;;;;;19.77;62.46;100596.59;5086760;27;45371;-84
2021/09/14 03:34:28;;;;;;;;;0.00;0.00;;;;;20.81;62.29;100757.09;5031125;27;45243;-82
2021/09/14 03:36:53;;;;;;;;;0.00;0.00;;;;;20.16;62.65;100662.31;5088645;27;45510;-84
2021/09/14 03:39:19;;;;;;;;;0.00;0.00;;;;;20.83;63.56;100759.69;5086616;27;47314;-85
2021/09/14 03:41:44;;;;;;;;;1.00;1.00;;;;;20.84;63.72;100770.22;5089040;27;45381;-84
2021/09/14 03:44:19;;;;;;;;;0.00;0.00;;;;;20.32;63.38;100660.00;5104377;27;45483;-81
2021/09/14 03:47:02;;;;;;;;;2.25;0.75;;;;;19.66;62.96;100558.19;5107641;27;45332;-85
2021/09/14 03:49:30;;;;;;;;;1.00;0.00;;;;;19.84;63.30;100583.16;5086054;27;48336;-85
2021/09/14 03:52:05;;;;;;;;;0.00;0.00;;;;;19.32;63.79;100490.66;5087370;27;45422;-87
2021/09/14 03:54:36;;;;;;;;;0.00;0.00;;;;;19.95;63.94;100603.94;5104660;27;45369;-83
2021/09/14 03:57:17;;;;;;;;;0.00;0.00;;;;;19.97;63.17;100598.59;5089378;27;45421;-83
2021/09/14 03:59:48;;;;;;;;;0.50;0.50;;;;;20.07;63.57;100601.81;5085536;27;47053;-86
2021/09/14 04:03:07;;;;;;;;;0.00;0.00;;;;;20.41;63.68;100652.66;5088982;27;45261;-88
2021/09/14 04:05:31;;;;;;;;;0.00;0.00;;;;;20.75;63.50;100725.56;5096913;27;45578;-84
2021/09/14 04:10:39;;;;;;;;;0.00;0.00;;;;;20.07;64.09;100622.97;5104170;27;45418;-83
2021/09/14 04:13:09;;;;;;;;;0.00;0.00;;;;;19.41;64.03;100494.78;5085431;27;45529;-85
2021/09/14 04:15:35;;;;;;;;;0.00;0.00;;;;;20.30;64.67;100637.19;5088403;27;45260;-85
2021/09/14 04:18:10;;;;;;;;;0.00;0.00;;;;;19.95;64.17;100585.44;5107789;27;45381;-84
2021/09/14 04:20:51;;;;;;;;;1.75;0.00;;;;;19.94;64.29;100586.34;5089139;27;46945;-86
2021/09/14 04:23:25;;;;;;;;;0.00;0.00;;;;;20.00;64.64;100604.66;5088106;27;45437;-86
2021/09/14 04:26:00;;;;;;;;;1.25;0.00;;;;;20.14;64.38;100616.56;5086703;27;45484;-86
2021/09/14 04:28:28;;;;;;;;;0.00;0.00;;;;;20.00;64.28;100604.66;5096339;27;45491;-87
2021/09/14 04:31:04;;;;;;;;;0.00;0.00;;;;;20.83;64.11;100731.44;5086853;27;45503;-83
2021/09/14 04:33:48;;;;;;;;;0.75;0.00;;;;;20.25;64.48;100638.19;5085198;27;45592;-87
2021/09/14 04:36:23;;;;;;;;;0.00;0.00;;;;;20.83;64.58;100720.84;5105363;27;45379;-87
2021/09/14 04:39:10;;;;;;;;;0.00;0.00;;;;;19.52;64.15;100490.03;5101023;27;45471;-83
2021/09/14 04:41:48;;;;;;;;;0.00;0.00;;;;;19.60;64.12;100485.34;5103539;27;45984;-89
2021/09/14 04:44:26;;;;;;;;;0.00;0.00;;;;;20.33;64.40;100597.41;5083067;27;45402;-87
2021/09/14 04:46:59;;;;;;;;;0.00;0.00;;;;;20.32;64.79;100585.13;5086561;27;45414;-83
2021/09/14 04:49:44;;;;;;;;;0.00;0.00;;;;;20.79;64.97;100646.97;5085391;27;45539;-83
2021/09/14 04:52:15;;;;;;;;;0.00;0.00;;;;;20.34;65.10;100541.84;5085259;27;47069;-88
2021/09/14 04:54:44;;;;;;;;;0.25;0.00;;;;;19.65;64.97;100410.38;5084505;27;45291;-88
2021/09/14 04:57:13;;;;;;;;;0.25;0.25;;;;;19.83;65.80;100436.16;5086484;27;45381;-87
2021/09/14 04:59:56;;;;;;;;;0.00;0.00;;;;;19.29;65.95;100359.69;5085353;27;45656;-83
2021/09/14 05:02:32;;;;;;;;;0.00;0.00;;;;;19.74;66.81;100468.16;5086357;27;47162;-86
2021/09/14 05:07:58;;;;;;;;;2.25;0.25;;;;;20.53;66.66;100617.00;5101583;27;45483;-88
2021/09/14 05:10:26;;;;;;;;;0.00;0.00;;;;;19.86;66.96;100512.66;5085409;27;45497;-87
2021/09/14 05:13:04;;;;;;;;;0.50;0.50;;;;;20.57;67.12;100638.00;5084234;27;45452;-86
2021/09/14 05:15:32;;;;;;;;;0.25;0.25;;;;;19.99;66.71;100541.28;5086564;27;45822;-80
2021/09/14 05:17:58;;;;;;;;;0.75;0.75;;;;;20.33;67.45;100603.56;5083484;27;45220;-84
2021/09/14 05:20:26;;;;;;;;;0.00;0.00;;;;;19.86;67.36;100544.34;5086723;27;45239;-80
2021/09/14 05:23:11;;;;;;;;;0.00;0.00;;;;;19.77;67.34;100520.88;5084179;27;47244;-85
2021/09/14 05:25:55;;;;;;;;;0.00;0.00;;;;;20.46;67.29;100634.88;5084760;27;45502;-84
2021/09/14 05:28:23;;;;;;;;;0.00;0.00;;;;;20.14;67.08;100582.19;5084380;27;45393;-84
2021/09/14 05:31:00;;;;;;;;;1.00;1.00;;;;;19.90;66.86;100547.75;5086466;27;45581;-86
2021/09/14 05:33:31;;;;;;;;;0.00;0.00;;;;;20.27;66.65;100617.00;5086650;27;47562;-85
2021/09/14 05:36:09;;;;;;;;;0.00;0.00;;;;;19.91;67.22;100565.34;5086208;27;45715;-87
2021/09/14 05:38:38;;;;;;;;;0.00;0.00;;;;;20.83;67.50;100717.38;5102595;27;44671;-85
2021/09/14 05:41:04;;;;;;;;;0.00;0.00;;;;;20.05;67.11;100601.88;5119423;27;45544;-82
2021/09/14 05:43:35;;;;;;;;;0.00;0.00;;;;;19.34;66.91;100484.44;5082318;27;47295;-86
2021/09/14 05:46:04;;;;;;;;;0.00;0.00;;;;;20.06;67.15;100631.81;5084591;27;45227;-84
2021/09/14 05:48:32;;;;;;;;;1.25;0.00;;;;;20.21;67.18;100675.38;5084553;27;45547;-84
2021/09/14 05:51:01;;;;;;;;;0.00;0.00;;;;;20.36;67.28;100703.91;5086666;27;45315;-89
2021/09/14 05:53:27;;;;;;;;;0.00;0.00;;;;;19.60;66.84;100605.94;5086586;27;45674;-86
2021/09/14 05:55:52;;;;;;;;;0.00;0.00;;;;;20.67;66.96;100780.50;5065342;28;45254;-86
2021/09/14 05:58:18;;;;;;;;;0.00;0.00;;;;;20.64;66.96;100799.97;5063965;28;45224;-82
2021/09/14 06:00:43;;;;;;;;;0.00;0.00;;;;;20.62;67.37;100804.47;5083177;28;45289;-81
2021/09/14 06:03:08;;;;;;;;;0.00;0.00;;;;;20.41;67.47;100779.56;5080963;28;46459;-81
2021/09/14 06:05:34;;;;;;;;;0.00;0.00;;;;;20.50;67.09;100803.06;5068112;28;45519;-83
2021/09/14 06:07:59;;;;;;;;;2.00;0.00;;;;;20.60;67.01;100822.13;5067013;28;45452;-80
2021/09/14 06:10:25;;;;;;;;;0.00;0.00;;;;;20.31;67.15;100794.84;5068362;28;45663;-84
2021/09/14 06:12:50;;;;;;;;;0.00;0.00;;;;;20.27;67.75;100807.28;5068262;28;48257;-86
2021/09/14 06:15:22;;;;;;;;;0.25;0.25;;;;;19.93;67.19;100744.88;5070677;28;45325;-83
2021/09/14 06:17:47;;;;;;;;;0.50;0.00;;;;;20.51;67.20;100844.44;5085845;28;45218;-82
2021/09/14 06:20:16;;;;;;;;;1.50;0.00;;;;;20.49;67.85;100838.38;5086553;28;45457;-84
2021/09/14 06:22:49;;;;;;;;;1.50;0.00;;;;;20.22;67.51;100803.94;5087662;27;47115;-82
2021/09/14 06:25:27;;;;;;;;;0.00;0.00;;;;;20.45;67.85;100842.88;5076361;28;45451;-82
2021/09/14 06:27:54;;;;;;;;;0.00;0.00;;;;;20.33;67.58;100820.31;5078456;28;45315;-87
2021/09/14 06:30:35;;;;;;;;;0.00;0.00;;;;;19.31;67.44;100661.34;5102845;27;45374;-81
2021/09/14 06:33:01;;;;;;;;;1.00;0.00;;;;;19.60;67.44;100701.84;5065932;28;47420;-80
2021/09/14 06:35:32;;;;;;;;;0.00;0.00;;;;;19.48;67.90;100676.66;5083836;28;45501;-80
2021/09/14 06:38:10;;;;;;;;;1.00;0.00;;;;;19.54;68.14;100685.31;5066114;28;45289;-81
2021/09/14 06:40:36;;;;;;;;;0.00;0.00;;;;;20.06;68.38;100766.56;5085617;28;45363;-77
2021/09/14 06:43:10;;;;;;;;;0.50;0.00;;;;;19.84;68.25;100724.91;5065165;27;45532;-82
2021/09/14 06:45:46;;;;;;;;;0.00;0.00;;;;;19.72;68.30;100705.00;5085135;28;45544;-82
2021/09/14 06:48:16;;;;;;;;;0.00;0.00;;;;;19.06;68.28;100608.38;5084416;28;45413;-81
2021/09/14 06:50:44;;;;;;;;;0.75;0.00;;;;;20.40;68.73;100839.53;5066520;28;45619;-82
2021/09/14 06:53:19;;;;;;;;;0.00;0.00;;;;;20.15;69.10;100805.03;5063967;28;46413;-81
2021/09/14 06:55:48;;;;;;;;;0.00;0.00;;;;;19.17;68.89;100647.69;5064574;28;45409;-82
2021/09/14 06:58:24;;;;;;;;;0.00;0.00;;;;;19.77;69.11;100734.78;5066152;28;45371;-82
2021/09/14 07:00:53;;;;;;;;;0.00;0.00;;;;;19.50;68.81;100672.22;5064579;28;45288;-82
2021/09/14 07:03:33;;;;;;;;;0.25;0.00;;;;;19.25;69.41;100621.94;5072722;28;45311;-82
2021/09/14 07:05:59;;;;;;;;;0.50;0.50;;;;;20.53;69.51;100868.19;5065619;28;45372;-82
2021/09/14 07:08:35;;;;;;;;;0.00;0.00;;;;;20.47;69.92;100883.34;5066543;28;45283;-80
2021/09/14 07:11:16;;;;;;;;;0.00;0.00;;;;;19.12;69.87;100661.84;5055469;27;45757;-85
2021/09/14 07:13:43;;;;;;;;;0.00;0.00;;;;;20.40;69.90;100876.53;5069683;28;47041;-86
2021/09/14 07:16:08;;;;;;;;;1.00;0.00;;;;;19.62;70.67;100755.47;5064719;28;45514;-87
2021/09/14 07:18:38;;;;;;;;;0.00;0.00;;;;;20.33;70.75;100862.63;5070562;28;44868;-82
2021/09/14 07:21:03;;;;;;;;;0.00;0.00;;;;;20.30;71.20;100841.56;5090057;28;45229;-82
2021/09/14 07:23:29;;;;;;;;;0.75;0.75;;;;;20.02;71.05;100789.56;5069065;28;47038;-84
2021/09/14 07:25:54;;;;;;;;;1.00;0.00;;;;;20.24;71.83;100821.47;5072370;28;45392;-83
2021/09/14 07:28:20;;;;;;;;;0.00;0.00;;;;;20.16;71.74;100783.84;5073488;28;45401;-84
2021/09/14 07:30:45;;;;;;;;;0.00;0.00;;;;;19.96;71.69;100713.09;5084742;28;45363;-83
2021/09/14 07:33:11;;;;;;;;;0.00;0.00;;;;;19.91;72.07;100696.53;5071433;28;47645;-84
2021/09/14 07:35:36;;;;;;;;;0.00;0.00;;;;;20.19;72.11;100741.47;5072847;28;45808;-83
2021/09/14 07:38:02;;;;;;;;;0.00;0.00;;;;;20.11;72.29;100731.16;5092627;28;45252;-80
2021/09/14 07:40:28;;;;;;;;;1.00;0.00;;;;;20.38;71.88;100756.75;5083640;28;45370;-79
2021/09/14 07:42:54;;;;;;;;;0.00;0.00;;;;;20.38;72.16;100732.94;5086481;27;45454;-80
2021/09/14 07:45:20;;;;;;;;;0.00;0.00;;;;;20.43;72.19;100736.28;5073352;27;45651;-79
2021/09/14 07:47:46;;;;;;;;;0.00;0.00;;;;;20.23;72.39;100714.03;5091828;27;45363;-78
2021/09/14 07:50:11;;;;;;;;;0.00;0.00;;;;;20.44;72.20;100756.56;5063281;28;45494;-79
2021/09/14 07:52:37;;;;;;;;;0.00;0.00;;;;;20.58;72.19;100763.16;5087230;28;45384;-83
2021/09/14 07:55:03;;;;;;;;;0.00;0.00;;;;;20.69;72.33;100779.53;5063737;28;45836;-80
2021/09/14 07:57:28;;;;;;;;;0.00;0.00;;;;;20.68;72.60;100763.72;5065102;28;45650;-80
2021/09/14 07:59:54;;;;;;;;;0.00;0.00;;;;;20.68;72.16;100764.59;5081638;28;45233;-80
2021/09/14 08:02:19;;;;;;;;;0.00;0.00;;;;;20.66;71.94;100750.53;5063455;28;47088;-80
2021/09/14 08:04:44;;;;;;;;;0.00;0.00;;;;;21.00;71.93;100799.69;5089901;28;45263;-80
2021/09/14 08:07:10;;;;;;;;;1.00;0.00;;;;;20.61;71.90;100723.41;5068417;28;45440;-77
2021/09/14 08:09:35;;;;;;;;;0.00;0.00;;;;;21.08;71.46;100777.38;5090007;28;45617;-85
2021/09/14 08:12:01;;;;;;;;;0.00;0.00;;;;;20.53;71.02;100689.28;5066874;27;46981;-84
2021/09/14 08:14:27;;;;;;;;;0.00;0.00;;;;;21.18;71.27;100775.28;5069398;28;45762;-84
2021/09/14 08:16:52;;;;;;;;;0.00;0.00;;;;;21.22;70.95;100798.94;5087443;27;45540;-83
2021/09/14 08:19:18;;;;;;;;;0.00;0.00;;;;;21.16;71.43;100793.00;5065697;28;45515;-80
2021/09/14 08:21:43;;;;;;;;;0.00;0.00;;;;;21.34;71.54;100825.88;5083291;28;46302;-81
2021/09/14 08:24:11;;;;;;;;;0.00;0.00;;;;;21.29;71.81;100819.91;5067038;28;45499;-80
2021/09/14 08:26:36;;;;;;;;;0.00;0.00;;;;;21.25;71.46;100798.84;5069142;28;45487;-83
2021/09/14 08:29:03;;;;;;;;;0.00;0.00;;;;;21.44;71.22;100834.38;5084780;28;45285;-85
2021/09/14 08:31:28;;;;;;;;;0.00;0.00;;;;;21.39;71.09;100818.66;5070427;28;48477;-78
2021/09/14 08:33:53;;;;;;;;;0.00;0.00;;;;;21.31;70.87;100789.81;5085068;28;45434;-81
2021/09/14 08:36:19;;;;;;;;;0.00;0.00;;;;;21.65;70.34;100838.03;5086828;28;45210;-83
2021/09/14 08:38:44;;;;;;;;;0.00;0.00;;;;;21.47;70.87;100803.34;5086213;28;45445;-84
2021/09/14 08:41:15;;;;;;;;;1.00;1.00;;;;;21.73;70.70;100845.69;5090892;28;45502;-81
2021/09/14 08:43:43;;;;;;;;;0.00;0.00;;;;;21.68;70.65;100847.66;5088737;27;45307;-82
2021/09/14 08:46:09;;;;;;;;;1.50;0.25;;;;;21.69;70.68;100852.91;5082579;28;45357;-82
2021/09/14 08:48:36;;;;;;;;;0.00;0.00;;;;;21.60;70.17;100845.28;5072465;28;44887;-82
2021/09/14 08:51:03;;;;;;;;;0.00;0.00;;;;;21.64;70.25;100850.44;5086534;28;45249;-78
2021/09/14 08:53:30;;;;;;;;;0.00;0.00;;;;;21.53;70.59;100826.09;5098340;27;45525;-83
2021/09/14 08:55:56;;;;;;;;;0.00;0.00;;;;;21.65;70.64;100852.16;5103929;27;45165;-83
2021/09/14 08:58:21;;;;;;;;;0.00;0.00;;;;;21.66;70.61;100837.13;5101047;27;45498;-83
2021/09/14 09:00:47;;;;;;;;;0.00;0.00;;;;;21.68;69.83;100839.72;5103119;27;46175;-82
2021/09/14 09:03:23;;;;;;;;;0.00;0.00;;;;;21.92;69.97;100867.13;5083118;27;46356;-83
2021/09/14 09:05:49;;;;;;;;;0.75;0.75;;;;;21.02;69.61;100710.53;5082836;27;45351;-84
2021/09/14 09:08:21;;;;;;;;;0.00;0.00;;;;;21.97;69.35;100862.53;5100211;27;45511;-84
2021/09/14 09:11:00;;;;;;;;;0.00;0.00;;;;;22.05;69.19;100861.38;5084516;27;48587;-83
2021/09/14 09:13:29;;;;;;;;;1.00;0.25;;;;;22.08;69.53;100854.16;5080079;27;45487;-85
2021/09/14 09:15:54;;;;;;;;;0.00;0.00;;;;;22.05;69.33;100850.75;5089202;27;45381;-84
2021/09/14 09:18:21;;;;;;;;;0.00;0.00;;;;;21.75;69.43;100801.53;5083796;27;45315;-82
2021/09/14 09:20:47;;;;;;;;;0.00;0.00;;;;;21.96;69.35;100839.56;5102459;27;46252;-82
2021/09/14 09:23:22;;;;;;;;;0.75;0.25;;;;;21.55;68.94;100757.19;5086641;27;45329;-81
2021/09/14 09:25:49;;;;;;;;;0.25;0.25;;;;;22.18;69.40;100859.09;5103162;27;45291;-83
2021/09/14 09:28:20;;;;;;;;;0.00;0.00;;;;;22.07;68.97;100846.25;5102326;27;45319;-81
2021/09/14 09:30:53;;;;;;;;;0.75;0.75;;;;;22.07;68.82;100833.00;5101391;27;45638;-79
2021/09/14 09:33:25;;;;;;;;;0.00;0.00;;;;;22.27;69.53;100861.41;5099590;27;45526;-80
2021/09/14 09:35:57;;;;;;;;;0.00;0.00;;;;;22.15;68.81;100830.94;5101678;27;45376;-83
2021/09/14 09:38:22;;;;;;;;;0.50;0.00;;;;;22.09;69.11;100815.25;5079350;27;45488;-82
2021/09/14 09:40:49;;;;;;;;;0.00;0.00;;;;;22.24;68.71;100849.13;5061595;28;47989;-81
2021/09/14 09:43:14;;;;;;;;;0.75;0.75;;;;;22.22;68.84;100855.41;5064008;28;45360;-84
2021/09/14 09:45:43;;;;;;;;;0.00;0.00;;;;;;;;5065071;27;45437;-82
2021/09/14 09:48:09;;;;;;;;;0.00;0.00;;;;;22.27;69.33;100837.53;5083522;27;45601;-79
2021/09/14 09:50:36;;;;;;;;;0.00;0.00;;;;;22.51;69.08;100840.16;5086377;27;47077;-81
2021/09/14 09:53:03;;;;;;;;;0.00;0.00;;;;;22.46;68.41;100804.97;5108021;27;45202;-78
2021/09/14 09:55:30;;;;;;;;;2.00;0.25;;;;;22.69;68.46;100849.16;5121540;27;45322;-80
2021/09/14 09:57:56;;;;;;;;;1.50;1.00;;;;;22.67;68.72;100835.13;5122246;27;45186;-82
2021/09/14 10:00:21;;;;;;;;;0.00;0.00;;;;;22.59;67.70;100819.50;5100248;27;47161;-82
2021/09/14 10:03:02;;;;;;;;;1.25;0.00;;;;;22.82;67.54;100840.72;5116402;27;45279;-81
2021/09/14 10:05:34;;;;;;;;;0.00;0.00;;;;;22.67;67.86;100820.97;5096435;27;45248;-82
2021/09/14 10:08:15;;;;;;;;;1.00;1.00;;;;;22.83;67.02;100851.28;5095114;27;44853;-86
2021/09/14 10:10:41;;;;;;;;;0.00;0.00;;;;;22.68;67.06;100823.56;5098898;27;45675;-80
2021/09/14 10:13:09;;;;;;;;;0.00;0.00;;;;;22.88;67.32;100841.31;5086515;27;45741;-84
2021/09/14 10:15:44;;;;;;;;;0.00;0.00;;;;;22.72;67.19;100808.41;5083507;27;45431;-83
2021/09/14 10:18:12;;;;;;;;;0.50;0.50;;;;;22.69;67.30;100798.75;5102594;27;45439;-82
2021/09/14 10:20:44;;;;;;;;;0.00;0.00;;;;;22.76;67.17;100807.34;5101394;27;46107;-82
2021/09/14 10:23:24;;;;;;;;;0.00;0.00;;;;;23.01;66.85;100840.81;5102027;27;45359;-83
2021/09/14 10:26:02;;;;;;;;;2.00;0.00;;;;;22.86;67.30;100803.38;5082384;27;45473;-83
2021/09/14 10:28:27;;;;;;;;;0.00;0.00;;;;;23.08;66.69;100826.34;5103551;27;45452;-82
2021/09/14 10:30:52;;;;;;;;;1.00;0.00;;;;;23.06;66.32;100812.25;5101345;27;45404;-81
2021/09/14 10:33:23;;;;;;;;;0.00;0.00;;;;;23.36;66.03;100845.50;5105361;27;45416;-80
2021/09/14 10:35:49;;;;;;;;;0.75;0.75;;;;;23.34;65.82;100824.34;5082378;27;45269;-80
2021/09/14 10:38:16;;;;;;;;;0.25;0.25;;;;;23.56;65.39;100842.03;5107569;27;45341;-77
2021/09/14 10:40:44;;;;;;;;;0.00;0.00;;;;;23.70;65.76;100844.06;5101474;27;45414;-82
2021/09/14 10:43:32;;;;;;;;;1.00;1.00;;;;;23.81;65.43;100856.88;5105015;27;44707;-84
2021/09/14 10:45:58;;;;;;;;;1.00;0.25;;;;;23.79;64.28;100838.31;5082231;27;45304;-84
2021/09/14 10:48:28;;;;;;;;;0.25;0.25;;;;;23.94;64.16;100845.69;5084561;27;45252;-84
2021/09/14 10:51:06;;;;;;;;;0.00;0.00;;;;;24.07;63.83;100843.31;5120389;27;47465;-82
2021/09/14 10:53:34;;;;;;;;;0.00;0.00;;;;;23.83;63.39;100793.00;5104742;27;45156;-82
2021/09/14 10:56:00;;;;;;;;;0.00;0.00;;;;;24.07;63.49;100822.88;5104524;27;45305;-82
2021/09/14 10:58:27;;;;;;;;;1.50;1.00;;;;;23.29;62.93;100690.91;5107456;27;45518;-81
2021/09/14 11:00:53;;;;;;;;;0.50;0.50;;;;;23.87;62.58;100782.16;5106992;27;46444;-84
2021/09/14 11:03:19;;;;;;;;;0.00;0.00;;;;;24.20;62.59;100844.50;5108039;27;45341;-84
2021/09/14 11:05:51;;;;;;;;;0.00;0.00;;;;;24.22;62.62;100842.59;5086031;27;45319;-82
2021/09/14 11:08:22;;;;;;;;;0.00;0.00;;;;;24.33;62.53;100835.91;5088185;27;45446;-84
2021/09/14 11:10:48;;;;;;;;;0.75;0.75;;;;;24.10;61.82;100808.59;5085153;27;48783;-83
2021/09/14 11:13:22;;;;;;;;;0.00;0.00;;;;;24.25;62.17;100844.25;5106191;27;45275;-82
2021/09/14 11:15:55;;;;;;;;;0.00;0.00;;;;;24.05;61.65;100832.75;5104714;27;45497;-82
2021/09/14 11:18:25;;;;;;;;;1.00;0.25;;;;;23.89;62.30;100841.41;5083768;27;45290;-83
2021/09/14 11:20:52;;;;;;;;;0.00;0.00;;;;;23.59;62.51;100801.19;5104009;27;45383;-83
2021/09/14 11:23:25;;;;;;;;;0.00;0.00;;;;;23.94;62.85;100843.03;5086082;27;45481;-85
2021/09/14 11:25:53;;;;;;;;;1.00;0.00;;;;;23.75;63.17;100791.56;5103850;27;45323;-83
2021/09/14 11:28:19;;;;;;;;;0.00;0.00;;;;;24.13;62.63;100830.59;5105722;27;45413;-84
2021/09/14 11:31:00;;;;;;;;;0.00;0.00;;;;;24.24;62.40;100838.09;5085880;27;48281;-81
2021/09/14 11:33:28;;;;;;;;;0.00;0.00;;;;;24.21;62.12;100821.41;5087809;27;44920;-80
2021/09/14 11:35:59;;;;;;;;;1.75;0.00;;;;;24.13;62.08;100809.34;5085466;27;45345;-80
2021/09/14 11:38:25;;;;;;;;;1.50;1.50;;;;;24.32;61.87;100828.88;5106856;27;45639;-79
2021/09/14 11:40:51;;;;;;;;;0.00;0.00;;;;;24.53;61.76;100843.78;5104219;27;46584;-80
2021/09/14 11:43:20;;;;;;;;;0.00;0.00;;;;;24.65;61.86;100828.16;5087623;27;45254;-81
2021/09/14 11:45:46;;;;;;;;;0.00;0.00;;;;;24.81;61.83;100809.63;5104109;27;45319;-81
2021/09/14 11:48:20;;;;;;;;;0.50;0.50;;;;;25.02;60.59;100818.34;5090531;27;45256;-84
2021/09/14 11:50:46;;;;;;;;;1.00;1.00;;;;;25.01;59.90;100803.31;5110282;27;45181;-84
2021/09/14 11:53:18;;;;;;;;;0.00;0.00;;;;;25.24;59.56;100814.59;5114140;27;45418;-84
2021/09/14 11:55:49;;;;;;;;;0.25;0.25;;;;;25.44;58.60;100823.31;5091158;28;45359;-83
2021/09/14 11:58:26;;;;;;;;;0.00;0.00;;;;;25.34;58.91;100804.31;5088694;28;45345;-82
2021/09/14 12:00:56;;;;;;;;;1.25;0.00;;;;;25.47;58.70;100823.16;5086945;28;45376;-81
2021/09/14 12:03:22;;;;;;;;;0.00;0.00;;;;;25.32;58.31;100818.66;5089067;27;45429;-82
2021/09/14 12:05:55;;;;;;;;;0.00;0.00;;;;;25.42;58.39;100817.22;5114702;27;45449;-81
2021/09/14 12:08:29;;;;;;;;;1.50;1.50;;;;;25.32;58.51;100816.00;5111996;27;45269;-80
2021/09/14 12:10:55;;;;;;;;;1.75;0.75;;;;;25.23;58.36;100814.66;5104038;27;45583;-80
2021/09/14 12:13:20;;;;;;;;;0.00;0.00;;;;;25.01;58.51;100792.66;5092698;27;45068;-79
2021/09/14 12:15:48;;;;;;;;;0.00;0.00;;;;;24.86;58.04;100778.31;5113556;27;45560;-79
2021/09/14 12:18:15;;;;;;;;;4.00;1.00;;;;;25.00;58.35;100817.56;5088913;27;45261;-78
2021/09/14 12:20:43;;;;;;;;;0.00;0.00;;;;;24.90;58.80;100822.50;5103790;27;46161;-80
2021/09/14 12:23:10;;;;;;;;;1.50;0.00;;;;;24.80;59.22;100795.47;5105750;27;45324;-79
2021/09/14 12:25:35;;;;;;;;;0.00;0.00;;;;;24.97;58.84;100803.56;5084515;27;45453;-80
2021/09/14 12:28:01;;;;;;;;;0.50;0.50;;;;;24.88;59.13;100767.63;5104617;27;45436;-79
2021/09/14 12:30:26;;;;;;;;;1.50;0.00;;;;;25.09;58.47;100776.31;5085086;27;47305;-79
2021/09/14 12:32:52;;;;;;;;;0.00;0.00;;;;;25.15;58.16;100769.78;5086108;27;45291;-78
2021/09/14 12:35:17;;;;;;;;;0.00;0.00;;;;;25.46;58.31;100800.13;5103869;27;45564;-78
2021/09/14 12:37:42;;;;;;;;;0.00;0.00;;;;;25.43;58.32;100777.19;5103421;27;45124;-79
2021/09/14 12:40:09;;;;;;;;;0.00;0.00;;;;;25.34;56.92;100763.47;5083213;27;47448;-79
2021/09/14 12:42:34;;;;;;;;;1.00;1.00;;;;;25.43;56.98;100784.31;5102699;27;45267;-79
2021/09/14 12:44:59;;;;;;;;;0.00;0.00;;;;;25.39;57.30;100775.59;5101614;27;45452;-79
2021/09/14 12:47:25;;;;;;;;;0.00;0.00;;;;;25.58;56.83;100790.63;5094211;27;45632;-78
2021/09/14 12:49:50;;;;;;;;;0.00;0.00;;;;;25.63;56.13;100790.41;5098861;27;45520;-78
2021/09/14 12:52:16;;;;;;;;;0.00;0.00;;;;;25.70;55.20;100785.59;5102895;27;45455;-77
2021/09/14 12:54:42;;;;;;;;;0.00;0.00;;;;;25.79;55.69;100806.41;5101124;27;45897;-78
2021/09/14 12:57:08;;;;;;;;;0.75;0.00;;;;;25.76;55.08;100779.91;5099495;27;45862;-78
2021/09/14 12:59:33;;;;;;;;;8.00;0.00;;;;;25.77;54.62;100777.16;5083782;27;47015;-79
2021/09/14 13:01:58;;;;;;;;;0.00;0.00;;;;;25.90;55.62;100784.47;5099544;27;45369;-79
2021/09/14 13:04:24;;;;;;;;;0.00;0.00;;;;;25.61;54.31;100749.63;5094384;27;45578;-78
2021/09/14 13:06:51;;;;;;;;;0.00;0.00;;;;;25.87;52.99;100803.31;5095031;27;45685;-78